Time;durP1;ratioP1;P1;durP2;ratioP2;P2;SDS_P1;SDS_P2;PMS_P1;PMS_P2;Temp;Humidity;BMP_temperature;BMP_pressure;BME280_temperature;BME280_humidity;BME280_pressure;Samples;Min_cycle;Max_cycle;Signal;HPM_P1;HPM_P2
2022/05/02 00:00:43;;;;;;;19.17;8.80;;;;;;;;;;5013477;28;20513;-71
2022/05/02 00:03:09;;;;;;;17.35;9.88;;;;;;;;;;5050505;28;20053;-70
2022/05/02 00:05:35;;;;;;;16.85;8.93;;;;;;;;;;5028716;28;20060;-71
2022/05/02 00:08:01;;;;;;;14.18;9.13;;;;;;;;;;5029957;28;20496;-71
2022/05/02 00:10:27;;;;;;;15.30;8.50;;;;;;;;;;5028835;28;20318;-71
2022/05/02 00:12:54;;;;;;;20.38;9.38;;;;;;;;;;5031580;28;20401;-70
2022/05/02 00:15:20;;;;;;;12.15;8.60;;;;;;;;;;5048377;28;20141;-70
2022/05/02 00:17:58;;;;;;;17.42;9.18;;;;;;;;;;5045195;28;20049;-71
2022/05/02 00:20:25;;;;;;;17.55;9.63;;;;;;;;;;5048138;28;20052;-71
2022/05/02 00:22:51;;;;;;;14.40;8.00;;;;;;;;;;5045387;28;20048;-70
2022/05/02 00:25:17;;;;;;;17.55;9.80;;;;;;;;;;5030887;28;20041;-71
2022/05/02 00:27:43;;;;;;;16.92;8.55;;;;;;;;;;5031236;28;20045;-69
2022/05/02 00:30:10;;;;;;;11.70;8.45;;;;;;;;;;5022685;28;20045;-69
2022/05/02 00:32:36;;;;;;;19.95;10.18;;;;;;;;;;5022647;28;20468;-70
2022/05/02 00:35:03;;;;;;;15.57;9.98;;;;;;;;;;5014672;28;20048;-69
2022/05/02 00:37:29;;;;;;;18.10;10.00;;;;;;;;;;5050226;28;20045;-70
2022/05/02 00:39:55;;;;;;;16.98;9.27;;;;;;;;;;5030202;28;20510;-70
2022/05/02 00:42:21;;;;;;;18.50;9.57;;;;;;;;;;5030921;28;20562;-70
2022/05/02 00:44:47;;;;;;;13.32;8.27;;;;;;;;;;5048526;28;20112;-70
2022/05/02 00:47:15;;;;;;;14.18;9.30;;;;;;;;;;5027258;28;20117;-70
2022/05/02 00:49:42;;;;;;;17.87;10.67;;;;;;;;;;5031582;28;20520;-70
2022/05/02 00:52:08;;;;;;;15.40;9.25;;;;;;;;;;5012641;28;20093;-70
2022/05/02 00:54:37;;;;;;;14.65;9.43;;;;;;;;;;5029214;28;20084;-70
2022/05/02 00:57:05;;;;;;;18.38;10.45;;;;;;;;;;5020731;28;20041;-70
2022/05/02 00:59:31;;;;;;;19.08;10.10;;;;;;;;;;5023330;28;20365;-70
2022/05/02 01:01:56;;;;;;;16.35;10.15;;;;;;;;;;5011373;28;20096;-70
2022/05/02 01:04:22;;;;;;;15.32;9.32;;;;;;;;;;5019586;28;20626;-70
2022/05/02 01:09:34;;;;;;;17.08;9.85;;;;;;;;;;5029362;28;20050;-70
2022/05/02 01:12:00;;;;;;;16.45;10.50;;;;;;;;;;5031718;28;20049;-70
2022/05/02 01:14:26;;;;;;;16.13;10.32;;;;;;;;;;5015622;28;20056;-70
2022/05/02 01:16:52;;;;;;;18.48;11.35;;;;;;;;;;5023950;28;20059;-70
2022/05/02 01:19:18;;;;;;;16.02;10.75;;;;;;;;;;5023647;28;20033;-70
2022/05/02 01:21:44;;;;;;;20.63;10.68;;;;;;;;;;5010798;28;20096;-70
2022/05/02 01:24:10;;;;;;;22.23;10.65;;;;;;;;;;5027911;28;20060;-70
2022/05/02 01:26:37;;;;;;;24.48;11.18;;;;;;;;;;5036171;28;20475;-70
2022/05/02 01:29:04;;;;;;;44.78;13.93;;;;;;;;;;5040614;28;20092;-70
2022/05/02 01:31:30;;;;;;;31.60;12.90;;;;;;;;;;5014402;28;20084;-70
2022/05/02 01:33:56;;;;;;;35.20;12.68;;;;;;;;;;5029001;28;20080;-70
2022/05/02 01:36:23;;;;;;;18.27;11.45;;;;;;;;;;5010751;28;20221;-70
2022/05/02 01:38:49;;;;;;;17.95;10.98;;;;;;;;;;5010640;28;20053;-70
2022/05/02 01:41:15;;;;;;;24.60;12.25;;;;;;;;;;5013878;28;20045;-70
2022/05/02 01:43:42;;;;;;;25.48;11.60;;;;;;;;;;5028000;28;20137;-70
2022/05/02 01:46:08;;;;;;;18.65;10.85;;;;;;;;;;5044985;28;20106;-70
2022/05/02 01:48:35;;;;;;;19.05;10.23;;;;;;;;;;5028273;28;20507;-70
2022/05/02 01:51:01;;;;;;;20.27;11.13;;;;;;;;;;5010625;28;20037;-70
2022/05/02 01:53:27;;;;;;;22.95;11.38;;;;;;;;;;5010157;28;20152;-70
2022/05/02 01:55:53;;;;;;;19.17;10.98;;;;;;;;;;5028303;28;20083;-70
2022/05/02 01:58:19;;;;;;;19.20;10.07;;;;;;;;;;5010564;28;20052;-70
2022/05/02 02:00:46;;;;;;;16.70;11.30;;;;;;;;;;5009989;28;20050;-70
2022/05/02 02:03:12;;;;;;;15.15;9.77;;;;;;;;;;5026828;28;20126;-70
2022/05/02 02:05:50;;;;;;;21.65;11.93;;;;;;;;;;5046751;28;20395;-70
2022/05/02 02:08:19;;;;;;;16.50;10.30;;;;;;;;;;5028186;28;20056;-70
2022/05/02 02:10:46;;;;;;;17.45;10.93;;;;;;;;;;5012443;28;20046;-70
2022/05/02 02:13:13;;;;;;;17.77;11.13;;;;;;;;;;5028788;28;20080;-70
2022/05/02 02:15:39;;;;;;;15.00;10.05;;;;;;;;;;5027868;28;20400;-70
2022/05/02 02:18:05;;;;;;;19.08;11.30;;;;;;;;;;5028241;28;20042;-70
2022/05/02 02:20:31;;;;;;;17.63;11.45;;;;;;;;;;5010417;28;20041;-70
2022/05/02 02:22:58;;;;;;;19.00;11.32;;;;;;;;;;5027633;28;20511;-70
2022/05/02 02:25:24;;;;;;;20.58;11.50;;;;;;;;;;5009979;28;20658;-70
2022/05/02 02:27:50;;;;;;;18.92;11.35;;;;;;;;;;5010398;28;20492;-70
2022/05/02 02:30:17;;;;;;;17.65;11.85;;;;;;;;;;5044699;28;20084;-70
2022/05/02 02:32:43;;;;;;;18.35;11.40;;;;;;;;;;5038827;28;20060;-70
2022/05/02 02:35:09;;;;;;;19.55;11.85;;;;;;;;;;5027845;28;20049;-70
2022/05/02 02:37:35;;;;;;;17.23;11.68;;;;;;;;;;5047920;28;20044;-70
2022/05/02 02:40:01;;;;;;;18.38;11.73;;;;;;;;;;5038907;28;20404;-70
2022/05/02 02:42:27;;;;;;;19.65;11.95;;;;;;;;;;5035976;28;20071;-70
2022/05/02 02:44:53;;;;;;;26.08;12.82;;;;;;;;;;5027087;28;20041;-70
2022/05/02 02:47:19;;;;;;;26.65;13.13;;;;;;;;;;5009680;28;20503;-70
2022/05/02 02:49:45;;;;;;;27.58;13.02;;;;;;;;;;5009555;28;20450;-70
2022/05/02 02:52:11;;;;;;;22.85;11.82;;;;;;;;;;5028453;28;20067;-70
2022/05/02 02:54:37;;;;;;;19.52;12.38;;;;;;;;;;5026358;28;20037;-70
2022/05/02 02:57:03;;;;;;;23.70;13.02;;;;;;;;;;5027544;28;20073;-70
2022/05/02 02:59:29;;;;;;;22.85;12.63;;;;;;;;;;5009195;28;20050;-70
2022/05/02 03:01:56;;;;;;;22.58;12.38;;;;;;;;;;5027865;28;20042;-70
2022/05/02 03:07:08;;;;;;;19.70;11.63;;;;;;;;;;5013216;28;20477;-70
2022/05/02 03:09:34;;;;;;;25.20;13.40;;;;;;;;;;5031981;28;20135;-70
2022/05/02 03:12:00;;;;;;;27.75;14.60;;;;;;;;;;5012691;28;20513;-70
2022/05/02 03:14:26;;;;;;;28.65;14.30;;;;;;;;;;5013122;28;20520;-70
2022/05/02 03:16:52;;;;;;;22.50;13.70;;;;;;;;;;5014618;28;20047;-70
2022/05/02 03:19:18;;;;;;;25.42;13.85;;;;;;;;;;5033245;28;20045;-70
2022/05/02 03:21:44;;;;;;;25.42;13.63;;;;;;;;;;5042226;28;20044;-70
2022/05/02 03:24:10;;;;;;;37.97;15.63;;;;;;;;;;5030808;28;20049;-70
2022/05/02 03:26:36;;;;;;;38.97;17.45;;;;;;;;;;5012681;28;20148;-70
2022/05/02 03:29:03;;;;;;;37.03;15.98;;;;;;;;;;5032192;28;20144;-70
2022/05/02 03:31:29;;;;;;;32.55;15.00;;;;;;;;;;5024173;28;20049;-70
2022/05/02 03:33:55;;;;;;;42.90;16.52;;;;;;;;;;5014917;28;20096;-70
2022/05/02 03:36:21;;;;;;;42.10;16.77;;;;;;;;;;5043160;28;20064;-70
2022/05/02 03:38:47;;;;;;;38.72;15.88;;;;;;;;;;5032669;28;20493;-70
2022/05/02 03:41:13;;;;;;;53.78;18.77;;;;;;;;;;5012480;28;20095;-70
2022/05/02 03:43:39;;;;;;;38.97;17.05;;;;;;;;;;5029626;28;20045;-70
2022/05/02 03:46:05;;;;;;;43.78;16.45;;;;;;;;;;5018835;28;20045;-70
2022/05/02 03:48:31;;;;;;;100.10;25.75;;;;;;;;;;5030116;28;20449;-70
2022/05/02 03:50:57;;;;;;;57.28;18.70;;;;;;;;;;5030448;28;20399;-70
2022/05/02 03:53:23;;;;;;;69.13;22.02;;;;;;;;;;5013494;28;20045;-70
2022/05/02 03:55:48;;;;;;;68.95;19.52;;;;;;;;;;5014119;28;20052;-70
2022/05/02 03:58:14;;;;;;;85.88;25.42;;;;;;;;;;5025805;28;20041;-70
2022/05/02 04:00:41;;;;;;;46.45;18.52;;;;;;;;;;5041327;28;20041;-70
2022/05/02 04:03:06;;;;;;;65.00;20.33;;;;;;;;;;5011886;28;20410;-70
2022/05/02 04:05:32;;;;;;;60.38;20.65;;;;;;;;;;5013184;28;20048;-70
2022/05/02 04:07:58;;;;;;;56.63;19.40;;;;;;;;;;5038485;28;20504;-70
2022/05/02 04:10:24;;;;;;;41.72;17.48;;;;;;;;;;5032145;28;20069;-70
2022/05/02 04:12:50;;;;;;;75.22;23.60;;;;;;;;;;5050024;28;20197;-70
2022/05/02 04:15:17;;;;;;;67.13;19.90;;;;;;;;;;5025300;28;20408;-70
2022/05/02 04:17:43;;;;;;;53.47;19.33;;;;;;;;;;5016482;28;20107;-70
2022/05/02 04:20:10;;;;;;;104.53;27.02;;;;;;;;;;5047006;28;20044;-70
2022/05/02 04:22:36;;;;;;;46.90;17.38;;;;;;;;;;5012880;28;20092;-70
2022/05/02 04:25:02;;;;;;;77.55;23.15;;;;;;;;;;5029303;28;20037;-70
2022/05/02 04:27:28;;;;;;;88.68;25.27;;;;;;;;;;5012147;28;20056;-70
2022/05/02 04:29:54;;;;;;;100.93;29.08;;;;;;;;;;5029808;28;20574;-70
2022/05/02 04:32:20;;;;;;;65.63;23.30;;;;;;;;;;5011586;28;20056;-69
2022/05/02 04:34:46;;;;;;;56.42;19.63;;;;;;;;;;5029697;28;20045;-69
2022/05/02 04:37:12;;;;;;;49.85;19.80;;;;;;;;;;5011609;28;20124;-69
2022/05/02 04:39:38;;;;;;;128.05;33.67;;;;;;;;;;5029420;28;20450;-69
2022/05/02 04:42:05;;;;;;;149.88;37.25;;;;;;;;;;5029522;28;20052;-70
2022/05/02 04:44:32;;;;;;;131.95;34.25;;;;;;;;;;5034107;28;20051;-69
2022/05/02 04:46:58;;;;;;;114.50;32.47;;;;;;;;;;5026268;28;20041;-69
2022/05/02 04:49:24;;;;;;;187.98;47.67;;;;;;;;;;5029522;28;20083;-69
2022/05/02 04:51:50;;;;;;;82.22;26.40;;;;;;;;;;5024048;28;20041;-69
2022/05/02 04:54:16;;;;;;;69.78;24.73;;;;;;;;;;5015428;28;20136;-70
2022/05/02 04:56:42;;;;;;;158.05;40.33;;;;;;;;;;5011447;28;20487;-69
2022/05/02 04:59:08;;;;;;;144.00;40.13;;;;;;;;;;5011155;28;20041;-69
2022/05/02 05:01:34;;;;;;;127.85;35.15;;;;;;;;;;5012079;28;20124;-69
2022/05/02 05:04:00;;;;;;;115.32;33.15;;;;;;;;;;5011161;28;20073;-70
2022/05/02 05:06:26;;;;;;;137.77;39.60;;;;;;;;;;5011103;28;20057;-70
2022/05/02 05:08:52;;;;;;;75.88;25.27;;;;;;;;;;5010952;28;20045;-70
2022/05/02 05:11:34;;;;;;;98.85;30.15;;;;;;;;;;5022917;28;20067;-70
2022/05/02 05:17:17;;;;;;;40.75;21.02;;;;;;;;;;5010601;28;20053;-70
2022/05/02 05:19:55;;;;;;;61.50;23.00;;;;;;;;;;5029053;28;20052;-70
2022/05/02 05:22:45;;;;;;;47.37;22.37;;;;;;;;;;5018478;28;20136;-70
2022/05/02 05:25:31;;;;;;;49.00;22.98;;;;;;;;;;5020943;28;20067;-70
2022/05/02 05:27:57;;;;;;;76.68;26.67;;;;;;;;;;5006182;28;20049;-70
2022/05/02 05:30:25;;;;;;;46.63;22.00;;;;;;;;;;5030856;28;20052;-68
2022/05/02 05:32:51;;;;;;;97.82;30.85;;;;;;;;;;5034590;28;20448;-70
2022/05/02 05:35:24;;;;;;;56.80;22.88;;;;;;;;;;5026208;28;20090;-70
2022/05/02 05:38:00;;;;;;;48.15;21.50;;;;;;;;;;5048208;28;20041;-71
2022/05/02 05:40:31;;;;;;;40.03;20.98;;;;;;;;;;5031639;28;20075;-70
2022/05/02 05:43:04;;;;;;;57.72;24.98;;;;;;;;;;5038500;28;20051;-70
2022/05/02 05:45:47;;;;;;;41.25;20.77;;;;;;;;;;5016007;28;20042;-70
2022/05/02 05:48:15;;;;;;;36.25;20.27;;;;;;;;;;5028047;28;20128;-70
2022/05/02 05:50:42;;;;;;;99.88;31.60;;;;;;;;;;5043546;28;20048;-70
2022/05/02 05:53:15;;;;;;;49.13;22.23;;;;;;;;;;5015543;28;20053;-70
2022/05/02 05:55:44;;;;;;;38.10;18.38;;;;;;;;;;5010291;28;20527;-70
2022/05/02 05:58:25;;;;;;;34.63;17.85;;;;;;;;;;5010793;28;20045;-70
2022/05/02 06:00:52;;;;;;;50.90;21.00;;;;;;;;;;5010535;28;20124;-70
2022/05/02 06:03:31;;;;;;;83.70;27.63;;;;;;;;;;5027990;28;20400;-69
2022/05/02 06:05:57;;;;;;;36.25;18.42;;;;;;;;;;5027272;28;20042;-69
2022/05/02 06:08:24;;;;;;;32.63;17.90;;;;;;;;;;5009962;28;20096;-70
2022/05/02 06:10:51;;;;;;;38.03;18.17;;;;;;;;;;5011235;28;20057;-69
2022/05/02 06:13:18;;;;;;;30.38;17.10;;;;;;;;;;5030111;28;20139;-69
2022/05/02 06:18:34;;;;;;;28.15;15.90;;;;;;;;;;5030236;28;20131;-70
2022/05/02 06:21:02;;;;;;;27.27;16.45;;;;;;;;;;5013515;28;20049;-70
2022/05/02 06:23:30;;;;;;;51.65;21.25;;;;;;;;;;5035898;28;20308;-70
2022/05/02 06:25:56;;;;;;;29.90;16.05;;;;;;;;;;5019667;28;20045;-70
2022/05/02 06:28:27;;;;;;;48.05;18.60;;;;;;;;;;5019505;28;20601;-70
2022/05/02 06:30:57;;;;;;;29.95;16.33;;;;;;;;;;5037525;28;20519;-68
2022/05/02 06:33:24;;;;;;;24.27;13.38;;;;;;;;;;5005729;28;20480;-69
2022/05/02 06:35:56;;;;;;;25.70;14.18;;;;;;;;;;5037844;28;20041;-69
2022/05/02 06:38:30;;;;;;;25.42;14.13;;;;;;;;;;5047937;28;20287;-70
2022/05/02 06:41:08;;;;;;;24.13;14.48;;;;;;;;;;5047705;28;20496;-70
2022/05/02 06:43:41;;;;;;;25.60;14.55;;;;;;;;;;5024344;28;20046;-70
2022/05/02 06:46:16;;;;;;;34.42;15.57;;;;;;;;;;5037354;28;20125;-69
2022/05/02 06:48:43;;;;;;;23.17;12.95;;;;;;;;;;5041401;28;20041;-69
2022/05/02 06:51:15;;;;;;;44.72;17.35;;;;;;;;;;5021335;28;20037;-69
2022/05/02 06:54:02;;;;;;;26.20;13.65;;;;;;;;;;5029628;28;20049;-70
2022/05/02 06:56:50;;;;;;;44.80;18.25;;;;;;;;;;5001358;28;20045;-70
2022/05/02 06:59:35;;;;;;;24.15;13.70;;;;;;;;;;5026184;28;20049;-69
2022/05/02 07:02:04;;;;;;;25.00;13.63;;;;;;;;;;5034208;28;20088;-69
2022/05/02 07:04:39;;;;;;;28.38;14.20;;;;;;;;;;5030954;28;20038;-69
2022/05/02 07:07:24;;;;;;;22.77;13.80;;;;;;;;;;5013384;28;20061;-69
2022/05/02 07:09:55;;;;;;;46.10;17.20;;;;;;;;;;5042967;28;20041;-69
2022/05/02 07:12:25;;;;;;;35.38;16.00;;;;;;;;;;5040689;28;20538;-69
2022/05/02 07:15:12;;;;;;;20.92;13.35;;;;;;;;;;5013926;28;20446;-70
2022/05/02 07:17:38;;;;;;;26.77;14.32;;;;;;;;;;5027797;28;20603;-70
2022/05/02 07:20:05;;;;;;;21.95;13.52;;;;;;;;;;5052019;28;20079;-70
2022/05/02 07:22:38;;;;;;;25.10;14.05;;;;;;;;;;5041997;28;20056;-70
2022/05/02 07:25:11;;;;;;;23.50;13.57;;;;;;;;;;5028156;28;20099;-70
2022/05/02 07:27:50;;;;;;;47.65;19.45;;;;;;;;;;5033954;28;20510;-70
2022/05/02 07:30:20;;;;;;;55.95;19.45;;;;;;;;;;5031806;28;20057;-70
2022/05/02 07:32:46;;;;;;;35.70;16.20;;;;;;;;;;5047468;28;20094;-70
2022/05/02 07:35:15;;;;;;;21.52;12.10;;;;;;;;;;5046637;28;20131;-70
2022/05/02 07:37:42;;;;;;;26.30;13.18;;;;;;;;;;5047176;28;20057;-70
2022/05/02 07:40:11;;;;;;;26.23;13.13;;;;;;;;;;5051307;28;20076;-70
2022/05/02 07:42:37;;;;;;;27.08;13.07;;;;;;;;;;5014606;28;20057;-70
2022/05/02 07:45:07;;;;;;;24.35;12.52;;;;;;;;;;5045464;28;20395;-70
2022/05/02 07:47:34;;;;;;;18.35;12.65;;;;;;;;;;5032459;28;20044;-71
2022/05/02 07:50:00;;;;;;;24.88;13.35;;;;;;;;;;5031574;28;20045;-70
2022/05/02 07:52:27;;;;;;;18.55;12.48;;;;;;;;;;5050116;28;20052;-70
2022/05/02 07:54:55;;;;;;;17.50;11.65;;;;;;;;;;5022383;28;20127;-70
2022/05/02 07:57:21;;;;;;;15.65;11.35;;;;;;;;;;5030540;28;20060;-70
2022/05/02 07:59:55;;;;;;;16.42;11.35;;;;;;;;;;5020874;28;20095;-70
2022/05/02 08:02:22;;;;;;;17.70;11.45;;;;;;;;;;5008075;28;20052;-70
2022/05/02 08:04:49;;;;;;;21.35;12.23;;;;;;;;;;5038326;28;20103;-70
2022/05/02 08:07:22;;;;;;;18.40;10.10;;;;;;;;;;5019254;28;20050;-70
2022/05/02 08:10:06;;;;;;;13.48;9.55;;;;;;;;;;5016795;28;20486;-70
2022/05/02 08:12:39;;;;;;;19.73;10.75;;;;;;;;;;5043238;28;20656;-70
2022/05/02 08:15:40;;;;;;;23.27;10.70;;;;;;;;;;5038034;28;20053;-70
2022/05/02 08:18:25;;;;;;;37.90;13.40;;;;;;;;;;4931148;29;20050;-70
2022/05/02 08:20:57;;;;;;;33.50;13.07;;;;;;;;;;4946815;29;20514;-70
2022/05/02 08:29:34;;;;;;;18.33;8.93;;;;;;;;;;4876416;29;20504;-70
2022/05/02 08:32:07;;;;;;;20.17;10.90;;;;;;;;;;4891459;29;20056;-70
2022/05/02 08:34:39;;;;;;;20.05;9.20;;;;;;;;;;4891703;29;20048;-70
2022/05/02 08:37:13;;;;;;;16.17;10.00;;;;;;;;;;4891613;29;20131;-70
2022/05/02 08:39:58;;;;;;;23.90;11.30;;;;;;;;;;4876440;29;20144;-70
2022/05/02 08:42:24;;;;;;;13.57;8.98;;;;;;;;;;4875818;29;20506;-70
2022/05/02 08:45:17;;;;;;;14.52;9.13;;;;;;;;;;4876542;29;20140;-70
2022/05/02 08:48:02;;;;;;;35.17;13.57;;;;;;;;;;4875638;29;20104;-70
2022/05/02 08:50:30;;;;;;;28.23;12.18;;;;;;;;;;4891538;29;20439;-70
2022/05/02 08:53:20;;;;;;;20.13;10.60;;;;;;;;;;4923467;29;20055;-70
2022/05/02 08:55:46;;;;;;;48.03;13.88;;;;;;;;;;4967574;28;20071;-71
2022/05/02 08:58:33;;;;;;;14.18;8.05;;;;;;;;;;4967082;28;20054;-70
2022/05/02 09:01:08;;;;;;;10.80;6.55;;;;;;;;;;4971433;28;20129;-70
2022/05/02 09:03:51;;;;;;;28.60;10.45;;;;;;;;;;5006102;28;20370;-70
2022/05/02 09:06:23;;;;;;;18.42;8.05;;;;;;;;;;5000365;28;20485;-70
2022/05/02 09:08:49;;;;;;;17.58;8.50;;;;;;;;;;4995699;28;20046;-70
2022/05/02 09:11:33;;;;;;;14.55;7.63;;;;;;;;;;4987980;28;20153;-71
2022/05/02 09:13:59;;;;;;;17.80;8.65;;;;;;;;;;5003040;28;20042;-71
2022/05/02 09:16:43;;;;;;;11.10;6.93;;;;;;;;;;4989102;28;20400;-70
2022/05/02 09:19:27;;;;;;;11.55;7.55;;;;;;;;;;4997865;28;20121;-71
2022/05/02 09:22:12;;;;;;;14.00;8.13;;;;;;;;;;5023750;28;20056;-71
2022/05/02 09:24:51;;;;;;;17.33;8.85;;;;;;;;;;4998101;28;20393;-71
2022/05/02 09:27:36;;;;;;;17.80;9.65;;;;;;;;;;4989166;28;20038;-71
2022/05/02 09:30:12;;;;;;;19.55;9.43;;;;;;;;;;5019731;28;20496;-71
2022/05/02 09:32:48;;;;;;;11.50;8.00;;;;;;;;;;5049135;28;20049;-71
2022/05/02 09:35:17;;;;;;;13.95;7.50;;;;;;;;;;5045549;28;20106;-71
2022/05/02 09:38:07;;;;;;;13.35;8.38;;;;;;;;;;5012959;28;20041;-71
2022/05/02 09:40:33;;;;;;;35.00;12.45;;;;;;;;;;5034422;28;20045;-71
2022/05/02 09:43:18;;;;;;;27.05;9.90;;;;;;;;;;5039867;28;20037;-71
2022/05/02 09:51:35;;;;;;;15.25;7.47;;;;;;;;;;5046237;28;20109;-71
2022/05/02 09:57:21;;;;;;;21.20;9.10;;;;;;;;;;4946296;28;20136;-72
2022/05/02 09:59:49;;;;;;;14.20;7.97;;;;;;;;;;4947633;28;20145;-71
2022/05/02 10:02:20;;;;;;;10.55;8.13;;;;;;;;;;4946268;28;20054;-71
2022/05/02 10:04:46;;;;;;;13.80;8.65;;;;;;;;;;4967080;28;20047;-71
2022/05/02 10:07:12;;;;;;;13.73;8.13;;;;;;;;;;4931241;29;20070;-71
2022/05/02 10:09:45;;;;;;;12.13;8.65;;;;;;;;;;4959114;28;20051;-71
2022/05/02 10:12:27;;;;;;;13.02;9.15;;;;;;;;;;4965632;28;20086;-71
2022/05/02 10:15:11;;;;;;;12.57;8.45;;;;;;;;;;4947335;28;20589;-71
2022/05/02 10:17:46;;;;;;;25.33;10.90;;;;;;;;;;4947370;28;20049;-71
2022/05/02 10:20:12;;;;;;;39.63;13.73;;;;;;;;;;4931995;29;20059;-71
2022/05/02 10:22:57;;;;;;;45.42;14.50;;;;;;;;;;4931485;28;20047;-71
2022/05/02 10:25:23;;;;;;;23.25;10.18;;;;;;;;;;4948336;28;20052;-71
2022/05/02 10:27:52;;;;;;;26.13;11.57;;;;;;;;;;4937572;28;20245;-73
2022/05/02 10:30:19;;;;;;;16.85;10.45;;;;;;;;;;4951473;28;20498;-72
2022/05/02 10:32:51;;;;;;;30.30;11.07;;;;;;;;;;4995282;28;20065;-71
2022/05/02 10:35:21;;;;;;;21.65;11.02;;;;;;;;;;5039206;28;20048;-71
2022/05/02 10:37:53;;;;;;;17.20;9.90;;;;;;;;;;5047886;28;20732;-71
2022/05/02 10:40:24;;;;;;;21.33;9.98;;;;;;;;;;5048635;28;20055;-71
2022/05/02 10:42:56;;;;;;;13.02;8.85;;;;;;;;;;5025725;28;20049;-71
2022/05/02 10:45:24;;;;;;;27.13;10.70;;;;;;;;;;5011387;28;20300;-71
2022/05/02 10:48:00;;;;;;;13.95;8.90;;;;;;;;;;5010238;28;20045;-71
2022/05/02 10:50:34;;;;;;;9.43;8.43;;;;;;;;;;5010558;28;20053;-71
2022/05/02 10:53:19;;;;;;;33.75;12.23;;;;;;;;;;5012493;28;20054;-71
2022/05/02 10:55:45;;;;;;;11.32;8.40;;;;;;;;;;5009980;28;20144;-72
2022/05/02 10:58:12;;;;;;;18.27;9.52;;;;;;;;;;5026290;28;20045;-72
2022/05/02 11:00:56;;;;;;;14.10;8.63;;;;;;;;;;5027944;28;20496;-72
2022/05/02 11:03:22;;;;;;;12.20;9.57;;;;;;;;;;5027968;28;20053;-72
2022/05/02 11:06:11;;;;;;;17.63;9.13;;;;;;;;;;5045843;28;20049;-71
2022/05/02 11:08:44;;;;;;;16.50;9.52;;;;;;;;;;5029565;28;20052;-72
2022/05/02 11:11:12;;;;;;;12.85;8.20;;;;;;;;;;5046446;28;20124;-71
2022/05/02 11:13:45;;;;;;;9.55;8.13;;;;;;;;;;5028049;28;20049;-72
2022/05/02 11:16:30;;;;;;;11.63;8.38;;;;;;;;;;5044586;28;20545;-72
2022/05/02 11:21:55;;;;;;;9.77;8.55;;;;;;;;;;5025533;28;20091;-72
2022/05/02 11:24:24;;;;;;;11.35;8.55;;;;;;;;;;5046390;28;20546;-72
2022/05/02 11:26:51;;;;;;;10.00;7.68;;;;;;;;;;5022498;28;20042;-71
2022/05/02 11:29:17;;;;;;;14.05;8.55;;;;;;;;;;5033080;28;20389;-72
2022/05/02 11:31:55;;;;;;;11.40;8.70;;;;;;;;;;5051425;28;20048;-72
2022/05/02 11:34:21;;;;;;;22.83;11.40;;;;;;;;;;5022111;28;20056;-72
2022/05/02 11:36:50;;;;;;;11.43;8.55;;;;;;;;;;5039058;28;20048;-72
2022/05/02 11:39:21;;;;;;;12.80;8.88;;;;;;;;;;5027931;28;20046;-72
2022/05/02 11:41:47;;;;;;;17.17;8.38;;;;;;;;;;5045556;28;20076;-72
2022/05/02 11:44:15;;;;;;;11.85;8.52;;;;;;;;;;5031008;28;20086;-72
2022/05/02 11:46:59;;;;;;;10.52;7.82;;;;;;;;;;5029900;28;20106;-71
2022/05/02 11:49:29;;;;;;;10.65;8.20;;;;;;;;;;5046445;28;20768;-72
2022/05/02 11:51:58;;;;;;;9.52;8.10;;;;;;;;;;5050250;28;20388;-72
2022/05/02 11:54:34;;;;;;;9.23;7.72;;;;;;;;;;5022767;28;20076;-69
2022/05/02 11:57:05;;;;;;;10.68;7.95;;;;;;;;;;5027928;28;20052;-72
2022/05/02 11:59:39;;;;;;;8.52;7.43;;;;;;;;;;5039045;28;20077;-71
2022/05/02 12:02:11;;;;;;;12.57;7.78;;;;;;;;;;5045791;28;20036;-71
2022/05/02 12:04:41;;;;;;;10.93;7.85;;;;;;;;;;5030223;28;20041;-71
2022/05/02 12:07:13;;;;;;;10.40;7.40;;;;;;;;;;5030989;28;20114;-71
2022/05/02 12:09:39;;;;;;;11.75;8.27;;;;;;;;;;5049037;28;20510;-71
2022/05/02 12:12:08;;;;;;;9.15;8.07;;;;;;;;;;5022619;28;20051;-71
2022/05/02 12:14:34;;;;;;;9.45;7.47;;;;;;;;;;5016273;28;20091;-71
2022/05/02 12:17:20;;;;;;;12.02;8.40;;;;;;;;;;5030864;28;20140;-71
2022/05/02 12:19:46;;;;;;;19.10;8.60;;;;;;;;;;5041438;28;20176;-71
2022/05/02 12:22:22;;;;;;;14.50;8.38;;;;;;;;;;5032342;28;20080;-71
2022/05/02 12:24:49;;;;;;;8.20;6.80;;;;;;;;;;5025402;28;20493;-71
2022/05/02 12:27:16;;;;;;;10.50;7.20;;;;;;;;;;5033133;28;20140;-71
2022/05/02 12:29:43;;;;;;;13.32;8.60;;;;;;;;;;5032119;28;20136;-71
2022/05/02 12:32:10;;;;;;;14.23;8.50;;;;;;;;;;5049330;28;20053;-71
2022/05/02 12:34:36;;;;;;;12.23;7.68;;;;;;;;;;5037483;28;20488;-71
2022/05/02 12:37:08;;;;;;;11.93;7.70;;;;;;;;;;5029080;28;20041;-71
2022/05/02 12:39:36;;;;;;;8.98;6.88;;;;;;;;;;5011894;28;20476;-71
2022/05/02 12:42:13;;;;;;;9.25;7.00;;;;;;;;;;5011964;28;20048;-71
2022/05/02 12:45:07;;;;;;;8.25;6.82;;;;;;;;;;5029278;28;20100;-71
2022/05/02 12:47:46;;;;;;;12.10;7.68;;;;;;;;;;5030814;28;20092;-72
2022/05/02 12:50:21;;;;;;;11.23;6.70;;;;;;;;;;5027867;28;20201;-71
2022/05/02 12:52:48;;;;;;;9.20;6.50;;;;;;;;;;5012528;28;20057;-71
2022/05/02 12:55:15;;;;;;;10.18;6.80;;;;;;;;;;5041022;28;20411;-71
2022/05/02 13:00:41;;;;;;;11.13;6.28;;;;;;;;;;5028139;28;20136;-71
2022/05/02 13:03:10;;;;;;;15.23;7.32;;;;;;;;;;5024928;28;20053;-71
2022/05/02 13:05:39;;;;;;;9.77;5.93;;;;;;;;;;5046987;28;20522;-71
2022/05/02 13:08:12;;;;;;;6.78;5.65;;;;;;;;;;5028344;28;20049;-71
2022/05/02 13:10:39;;;;;;;16.05;8.07;;;;;;;;;;5022841;28;20126;-72
2022/05/02 13:13:10;;;;;;;11.90;6.65;;;;;;;;;;5017356;28;20049;-71
2022/05/02 13:15:47;;;;;;;7.97;6.38;;;;;;;;;;5037811;28;20037;-72
2022/05/02 13:18:16;;;;;;;7.10;5.05;;;;;;;;;;5021511;28;20037;-71
2022/05/02 13:20:48;;;;;;;7.57;5.10;;;;;;;;;;5040358;28;20566;-71
2022/05/02 13:23:14;;;;;;;7.13;6.28;;;;;;;;;;5041701;28;20073;-71
2022/05/02 13:25:57;;;;;;;7.10;5.63;;;;;;;;;;5038333;28;20069;-71
2022/05/02 13:28:25;;;;;;;9.65;5.82;;;;;;;;;;5018343;28;20100;-71
2022/05/02 13:31:11;;;;;;;9.98;6.68;;;;;;;;;;5037790;28;20110;-73
2022/05/02 13:33:39;;;;;;;16.40;6.75;;;;;;;;;;4971982;28;20126;-72
2022/05/02 13:36:07;;;;;;;19.92;8.35;;;;;;;;;;5022540;28;20104;-72
2022/05/02 13:38:47;;;;;;;5.72;5.10;;;;;;;;;;5037856;28;20443;-72
2022/05/02 13:41:32;;;;;;;7.20;5.63;;;;;;;;;;5037791;28;20466;-72
2022/05/02 13:44:04;;;;;;;5.07;4.68;;;;;;;;;;5041657;28;20045;-72
2022/05/02 13:46:40;;;;;;;4.55;4.00;;;;;;;;;;5041178;28;20045;-72
2022/05/02 13:49:23;;;;;;;9.15;4.70;;;;;;;;;;5020405;28;20091;-72
2022/05/02 13:52:02;;;;;;;5.07;4.53;;;;;;;;;;5037469;28;20041;-72
2022/05/02 13:54:30;;;;;;;6.30;4.70;;;;;;;;;;5036310;28;20041;-72
2022/05/02 13:57:14;;;;;;;16.02;7.45;;;;;;;;;;5028960;28;20099;-72
2022/05/02 13:59:56;;;;;;;15.15;6.78;;;;;;;;;;5016709;28;20051;-72
2022/05/02 14:02:53;;;;;;;15.38;6.55;;;;;;;;;;5020005;28;20049;-72
2022/05/02 14:05:27;;;;;;;6.47;5.10;;;;;;;;;;5018308;28;20480;-72
2022/05/02 14:07:59;;;;;;;6.80;4.68;;;;;;;;;;5036724;28;20414;-73
2022/05/02 14:10:26;;;;;;;7.40;5.28;;;;;;;;;;5021079;28;20084;-72
2022/05/02 14:12:52;;;;;;;13.25;6.47;;;;;;;;;;5036426;28;20826;-72
2022/05/02 14:15:19;;;;;;;15.43;6.80;;;;;;;;;;5032126;28;20072;-72
2022/05/02 14:17:59;;;;;;;9.13;5.27;;;;;;;;;;5044870;28;20049;-72
2022/05/02 14:20:25;;;;;;;19.63;7.93;;;;;;;;;;5015654;28;20042;-72
2022/05/02 14:22:58;;;;;;;8.05;4.93;;;;;;;;;;5039883;28;20084;-72
2022/05/02 14:25:36;;;;;;;9.20;4.38;;;;;;;;;;5034168;28;20045;-72
2022/05/02 14:28:08;;;;;;;14.45;6.07;;;;;;;;;;5027241;28;20603;-72
2022/05/02 14:30:38;;;;;;;7.78;4.70;;;;;;;;;;5018909;28;20081;-72
2022/05/02 14:33:05;;;;;;;7.35;4.55;;;;;;;;;;5027888;28;20056;-72
2022/05/02 14:35:39;;;;;;;17.77;6.60;;;;;;;;;;5037706;28;20041;-72
2022/05/02 14:38:09;;;;;;;14.00;5.70;;;;;;;;;;5000657;28;20323;-72
2022/05/02 14:40:39;;;;;;;15.80;6.90;;;;;;;;;;5026244;28;20073;-71
2022/05/02 14:43:06;;;;;;;13.25;5.43;;;;;;;;;;5045811;28;20045;-71
2022/05/02 14:45:33;;;;;;;7.35;4.80;;;;;;;;;;5045582;28;20037;-71
2022/05/02 14:48:02;;;;;;;6.45;4.20;;;;;;;;;;5029676;28;20529;-71
2022/05/02 14:50:28;;;;;;;5.53;4.20;;;;;;;;;;5041075;28;20037;-71
2022/05/02 14:52:55;;;;;;;8.52;4.28;;;;;;;;;;5017409;28;20046;-71
2022/05/02 14:55:24;;;;;;;10.65;4.95;;;;;;;;;;5030617;28;20087;-71
2022/05/02 14:57:51;;;;;;;10.10;5.13;;;;;;;;;;5048002;28;20480;-71
2022/05/02 15:00:23;;;;;;;9.02;4.57;;;;;;;;;;5046332;28;20134;-72
2022/05/02 15:02:50;;;;;;;8.00;5.30;;;;;;;;;;5028914;28;20049;-71
2022/05/02 15:05:20;;;;;;;7.10;5.05;;;;;;;;;;5033060;28;20049;-71
2022/05/02 15:07:49;;;;;;;10.75;5.22;;;;;;;;;;5030735;28;20082;-71
2022/05/02 15:10:16;;;;;;;10.82;5.38;;;;;;;;;;5030480;28;20045;-71
2022/05/02 15:12:42;;;;;;;8.57;5.60;;;;;;;;;;5013466;28;20046;-71
2022/05/02 15:15:17;;;;;;;12.77;5.90;;;;;;;;;;5034766;28;20099;-71